Time;durP1;ratioP1;P1;durP2;ratioP2;P2;SDS_P1;SDS_P2;PMS_P1;PMS_P2;Temp;Humidity;BMP_temperature;BMP_pressure;BME280_temperature;BME280_humidity;BME280_pressure;Samples;Min_cycle;Max_cycle;Signal;HPM_P1;HPM_P2
2023/06/26 00:01:53;;;;;;;;;;;;;;;;;;5202025;22;19967;-57
2023/06/26 00:04:14;;;;;;;;;;;;;;;;;;5202015;22;19966;-57
2023/06/26 00:06:35;;;;;;;;;;;;;;;;;;5201910;22;19967;-58
2023/06/26 00:08:59;;;;;;;;;;;;;;;;;;5202027;22;19922;-57
2023/06/26 00:11:19;;;;;;;;;;;;;;;;;;5202019;22;19918;-58
2023/06/26 00:13:39;;;;;;;;;;;;;;;;;;5201875;22;19926;-57
2023/06/26 00:16:03;;;;;;;;;;;;;;;;;;5201942;22;19942;-58
2023/06/26 00:18:23;;;;;;;;;;;;;;;;;;5201955;22;20110;-58
2023/06/26 00:20:43;;;;;;;;;;;;;;;;;;5201943;22;20049;-58
2023/06/26 00:23:07;;;;;;;;;;;;;;;;;;5210348;22;19918;-58
2023/06/26 00:25:27;;;;;;;;;;;;;;;;;;5201934;22;19917;-58
2023/06/26 00:27:47;;;;;;;;;;;;;;;;;;5179152;22;20225;-58
2023/06/26 00:30:08;;;;;;;;;;;;;;;;;;5201779;22;19946;-58
2023/06/26 00:32:28;;;;;;;;;;;;;;;;;;5201902;22;19918;-57
2023/06/26 00:34:48;;;;;;;;;;;;;;;;;;5201845;22;19918;-57
2023/06/26 00:37:08;;;;;;;;;;;;;;;;;;5201827;22;19926;-57
2023/06/26 00:39:29;;;;;;;;;;;;;;;;;;5201833;22;20110;-58
2023/06/26 00:41:49;;;;;;;;;;;;;;;;;;5201904;22;19950;-57
2023/06/26 00:44:10;;;;;;;;;;;;;;;;;;5202143;22;19933;-57
2023/06/26 00:46:30;;;;;;;;;;;;;;;;;;5202106;22;19918;-58
2023/06/26 00:48:52;;;;;;;;;;;;;;;;;;5179415;22;19938;-57
2023/06/26 00:51:16;;;;;;;;;;;;;;;;;;5201710;22;19926;-57
2023/06/26 00:53:36;;;;;;;;;;;;;;;;;;5201649;22;19949;-58
2023/06/26 00:55:56;;;;;;;;;;;;;;;;;;5201890;22;19918;-57
2023/06/26 00:58:17;;;;;;;;;;;;;;;;;;5201767;22;19926;-58
2023/06/26 01:00:37;;;;;;;;;;;;;;;;;;5201491;22;19972;-58
2023/06/26 01:02:58;;;;;;;;;;;;;;;;;;5201700;22;20113;-58
2023/06/26 01:05:20;;;;;;;;;;;;;;;;;;5201839;22;20269;-57
2023/06/26 01:07:41;;;;;;;;;;;;;;;;;;5201763;22;19981;-57
2023/06/26 01:10:01;;;;;;;;;;;;;;;;;;5201657;22;20141;-58
2023/06/26 01:12:21;;;;;;;;;;;;;;;;;;5201828;22;19945;-57
2023/06/26 01:14:41;;;;;;;;;;;;;;;;;;5201711;22;19918;-57
2023/06/26 01:17:02;;;;;;;;;;;;;;;;;;5202102;22;19968;-58
2023/06/26 01:19:24;;;;;;;;;;;;;;;;;;5202180;22;20421;-57
2023/06/26 01:21:45;;;;;;;;;;;;;;;;;;5201700;22;19957;-58
2023/06/26 01:24:06;;;;;;;;;;;;;;;;;;5201572;22;19953;-57
2023/06/26 01:26:26;;;;;;;;;;;;;;;;;;5201686;22;19965;-58
2023/06/26 01:28:46;;;;;;;;;;;;;;;;;;5201719;22;19956;-57
2023/06/26 01:31:06;;;;;;;;;;;;;;;;;;5201610;22;19975;-58
2023/06/26 01:33:26;;;;;;;;;;;;;;;;;;5201678;22;19975;-57
2023/06/26 01:35:47;;;;;;;;;;;;;;;;;;5201699;22;19926;-57
2023/06/26 01:38:07;;;;;;;;;;;;;;;;;;5201646;22;19953;-57
2023/06/26 01:40:27;;;;;;;;;;;;;;;;;;5201503;22;19926;-57
2023/06/26 01:42:48;;;;;;;;;;;;;;;;;;5201703;22;19967;-57
2023/06/26 01:45:11;;;;;;;;;;;;;;;;;;5201697;22;19918;-57
2023/06/26 01:47:31;;;;;;;;;;;;;;;;;;5201621;22;19921;-58
2023/06/26 01:49:51;;;;;;;;;;;;;;;;;;5201590;22;19930;-57
2023/06/26 01:52:11;;;;;;;;;;;;;;;;;;5201545;22;20156;-57
2023/06/26 01:54:32;;;;;;;;;;;;;;;;;;5201463;22;19918;-57
2023/06/26 01:56:52;;;;;;;;;;;;;;;;;;5201584;22;19956;-57
2023/06/26 01:59:13;;;;;;;;;;;;;;;;;;5210152;22;19950;-57
2023/06/26 02:01:34;;;;;;;;;;;;;;;;;;5201442;22;19942;-58
2023/06/26 02:03:54;;;;;;;;;;;;;;;;;;5201538;22;19918;-57
2023/06/26 02:06:14;;;;;;;;;;;;;;;;;;5201611;22;19941;-57
2023/06/26 02:08:35;;;;;;;;;;;;;;;;;;5201835;22;20216;-57
2023/06/26 02:10:55;;;;;;;;;;;;;;;;;;5201388;22;19918;-57
2023/06/26 02:13:15;;;;;;;;;;;;;;;;;;5200920;22;19953;-58
2023/06/26 02:15:36;;;;;;;;;;;;;;;;;;5201479;22;19942;-58
2023/06/26 02:17:56;;;;;;;;;;;;;;;;;;5201419;22;19954;-58
2023/06/26 02:20:16;;;;;;;;;;;;;;;;;;5201481;22;19997;-58
2023/06/26 02:22:37;;;;;;;;;;;;;;;;;;5201444;22;19925;-58
2023/06/26 02:24:57;;;;;;;;;;;;;;;;;;5201405;22;19934;-57
2023/06/26 02:27:17;;;;;;;;;;;;;;;;;;5201480;22;19926;-57
2023/06/26 02:29:38;;;;;;;;;;;;;;;;;;5201472;22;19965;-58
2023/06/26 02:31:58;;;;;;;;;;;;;;;;;;5201373;22;19918;-57
2023/06/26 02:34:18;;;;;;;;;;;;;;;;;;5201439;22;19917;-58
2023/06/26 02:36:39;;;;;;;;;;;;;;;;;;5201492;22;20241;-57
2023/06/26 02:39:02;;;;;;;;;;;;;;;;;;5201420;22;19971;-58
2023/06/26 02:41:23;;;;;;;;;;;;;;;;;;5201263;22;20217;-58
2023/06/26 02:43:43;;;;;;;;;;;;;;;;;;5201391;22;19937;-58
2023/06/26 02:46:03;;;;;;;;;;;;;;;;;;5201358;22;20360;-57
2023/06/26 02:48:24;;;;;;;;;;;;;;;;;;5201298;22;19918;-57
2023/06/26 02:50:46;;;;;;;;;;;;;;;;;;5201444;22;19917;-57
2023/06/26 02:53:06;;;;;;;;;;;;;;;;;;5201318;22;20349;-57
2023/06/26 02:55:26;;;;;;;;;;;;;;;;;;5201257;22;19918;-58
2023/06/26 02:57:49;;;;;;;;;;;;;;;;;;5201400;22;19953;-57
2023/06/26 03:00:09;;;;;;;;;;;;;;;;;;5201195;22;20122;-58
2023/06/26 03:02:30;;;;;;;;;;;;;;;;;;5201279;22;19918;-58
2023/06/26 03:04:51;;;;;;;;;;;;;;;;;;5178461;22;19957;-58
2023/06/26 03:07:11;;;;;;;;;;;;;;;;;;5201333;22;19957;-57
2023/06/26 03:09:32;;;;;;;;;;;;;;;;;;5201205;22;19959;-57
2023/06/26 03:11:52;;;;;;;;;;;;;;;;;;5201206;22;19984;-57
2023/06/26 03:14:13;;;;;;;;;;;;;;;;;;5201318;22;20106;-57
2023/06/26 03:16:33;;;;;;;;;;;;;;;;;;5201229;22;19956;-57
2023/06/26 03:18:54;;;;;;;;;;;;;;;;;;5201051;22;19918;-58
2023/06/26 03:21:14;;;;;;;;;;;;;;;;;;5201200;22;19963;-58
2023/06/26 03:23:34;;;;;;;;;;;;;;;;;;5201010;22;19952;-57
2023/06/26 03:25:55;;;;;;;;;;;;;;;;;;5201048;22;19918;-57
2023/06/26 03:28:15;;;;;;;;;;;;;;;;;;5178319;22;19926;-58
2023/06/26 03:30:35;;;;;;;;;;;;;;;;;;5201178;22;19949;-57
2023/06/26 03:32:56;;;;;;;;;;;;;;;;;;5201046;22;19918;-58
2023/06/26 03:35:16;;;;;;;;;;;;;;;;;;5201056;22;19948;-58
2023/06/26 03:37:37;;;;;;;;;;;;;;;;;;5201074;22;19933;-58
2023/06/26 03:39:57;;;;;;;;;;;;;;;;;;5200826;22;20385;-58
2023/06/26 03:42:17;;;;;;;;;;;;;;;;;;5201059;22;19957;-57
2023/06/26 03:44:38;;;;;;;;;;;;;;;;;;5201004;22;20267;-57
2023/06/26 03:46:58;;;;;;;;;;;;;;;;;;5200996;22;19949;-58
2023/06/26 03:49:18;;;;;;;;;;;;;;;;;;5200882;22;19957;-58
2023/06/26 03:51:38;;;;;;;;;;;;;;;;;;5200994;22;19918;-58
2023/06/26 03:53:59;;;;;;;;;;;;;;;;;;5200874;22;19937;-58
2023/06/26 03:56:19;;;;;;;;;;;;;;;;;;5200800;22;19953;-57
2023/06/26 03:58:40;;;;;;;;;;;;;;;;;;5200851;22;19917;-57
2023/06/26 04:01:01;;;;;;;;;;;;;;;;;;5178074;22;19926;-58
2023/06/26 04:03:21;;;;;;;;;;;;;;;;;;5200737;22;20221;-57
2023/06/26 04:05:41;;;;;;;;;;;;;;;;;;5200822;22;19922;-57
2023/06/26 04:08:02;;;;;;;;;;;;;;;;;;5200896;22;19926;-57
2023/06/26 04:10:25;;;;;;;;;;;;;;;;;;5200791;22;19926;-57
2023/06/26 04:12:45;;;;;;;;;;;;;;;;;;5200714;22;19918;-57
2023/06/26 04:15:05;;;;;;;;;;;;;;;;;;5200788;22;19942;-58
2023/06/26 04:17:26;;;;;;;;;;;;;;;;;;5200741;22;19966;-58
2023/06/26 04:19:46;;;;;;;;;;;;;;;;;;5200478;22;19965;-58
2023/06/26 04:22:06;;;;;;;;;;;;;;;;;;5200778;22;20229;-57
2023/06/26 04:24:27;;;;;;;;;;;;;;;;;;5200649;22;19917;-57
2023/06/26 04:26:47;;;;;;;;;;;;;;;;;;5200596;22;20258;-60
2023/06/26 04:29:07;;;;;;;;;;;;;;;;;;5200670;22;19918;-60
2023/06/26 04:31:27;;;;;;;;;;;;;;;;;;5200668;22;19926;-61
2023/06/26 04:33:51;;;;;;;;;;;;;;;;;;5177810;22;19977;-60
2023/06/26 04:36:11;;;;;;;;;;;;;;;;;;5201086;22;19941;-60
2023/06/26 04:38:31;;;;;;;;;;;;;;;;;;5201967;22;19927;-60
2023/06/26 04:40:51;;;;;;;;;;;;;;;;;;5201601;22;20264;-60
2023/06/26 04:43:12;;;;;;;;;;;;;;;;;;5201789;22;19919;-60
2023/06/26 04:45:32;;;;;;;;;;;;;;;;;;5201821;22;19954;-60
2023/06/26 04:47:53;;;;;;;;;;;;;;;;;;5179079;22;19935;-60
2023/06/26 04:50:13;;;;;;;;;;;;;;;;;;5201779;22;20106;-60
2023/06/26 04:52:35;;;;;;;;;;;;;;;;;;5201786;22;19918;-60
2023/06/26 04:54:56;;;;;;;;;;;;;;;;;;5201771;22;19976;-60
2023/06/26 04:57:17;;;;;;;;;;;;;;;;;;5201656;22;19969;-60
2023/06/26 04:59:37;;;;;;;;;;;;;;;;;;5201721;22;19962;-61
2023/06/26 05:01:58;;;;;;;;;;;;;;;;;;5201797;22;19918;-61
2023/06/26 05:04:18;;;;;;;;;;;;;;;;;;5201767;22;20265;-60
2023/06/26 05:06:38;;;;;;;;;;;;;;;;;;5201734;22;19927;-60
2023/06/26 05:08:59;;;;;;;;;;;;;;;;;;5201806;22;19919;-60
2023/06/26 05:11:19;;;;;;;;;;;;;;;;;;5201688;22;20222;-60
2023/06/26 05:13:39;;;;;;;;;;;;;;;;;;5201734;22;19938;-61
2023/06/26 05:16:00;;;;;;;;;;;;;;;;;;5201770;22;19981;-60
2023/06/26 05:18:20;;;;;;;;;;;;;;;;;;5201680;22;20217;-61
2023/06/26 05:20:40;;;;;;;;;;;;;;;;;;5201448;22;19949;-61
2023/06/26 05:23:01;;;;;;;;;;;;;;;;;;5201657;22;19934;-60
2023/06/26 05:25:21;;;;;;;;;;;;;;;;;;5201807;22;19938;-61
2023/06/26 05:27:42;;;;;;;;;;;;;;;;;;5201658;22;19930;-60
2023/06/26 05:30:02;;;;;;;;;;;;;;;;;;5201756;22;19973;-61
2023/06/26 05:32:22;;;;;;;;;;;;;;;;;;5201786;22;19926;-60
2023/06/26 05:34:43;;;;;;;;;;;;;;;;;;5201695;22;19969;-61
2023/06/26 05:37:03;;;;;;;;;;;;;;;;;;5201584;22;19966;-60
2023/06/26 05:39:24;;;;;;;;;;;;;;;;;;5201597;22;19981;-60
2023/06/26 05:41:44;;;;;;;;;;;;;;;;;;5201639;22;19918;-60
2023/06/26 05:44:05;;;;;;;;;;;;;;;;;;5201600;22;19922;-61
2023/06/26 05:46:25;;;;;;;;;;;;;;;;;;5201708;22;20260;-60
2023/06/26 05:48:45;;;;;;;;;;;;;;;;;;5201472;22;19926;-60
2023/06/26 05:51:05;;;;;;;;;;;;;;;;;;5201604;22;19918;-61
2023/06/26 05:53:26;;;;;;;;;;;;;;;;;;5201683;22;19925;-59
2023/06/26 05:55:46;;;;;;;;;;;;;;;;;;5201585;22;19942;-60
2023/06/26 05:58:06;;;;;;;;;;;;;;;;;;5201444;22;19918;-61
2023/06/26 06:00:26;;;;;;;;;;;;;;;;;;5201491;22;19918;-60
2023/06/26 06:02:46;;;;;;;;;;;;;;;;;;5201645;22;20296;-60
2023/06/26 06:05:07;;;;;;;;;;;;;;;;;;5201401;22;20261;-60
2023/06/26 06:07:27;;;;;;;;;;;;;;;;;;5201532;22;19926;-60
2023/06/26 06:09:47;;;;;;;;;;;;;;;;;;5201605;22;19956;-60
2023/06/26 06:12:07;;;;;;;;;;;;;;;;;;5201504;22;19917;-60
2023/06/26 06:14:28;;;;;;;;;;;;;;;;;;5201449;22;20107;-61
2023/06/26 06:16:48;;;;;;;;;;;;;;;;;;5201589;22;19922;-60
2023/06/26 06:19:11;;;;;;;;;;;;;;;;;;5201551;22;19917;-60
2023/06/26 06:21:31;;;;;;;;;;;;;;;;;;5201408;22;19926;-60
2023/06/26 06:23:51;;;;;;;;;;;;;;;;;;5201545;22;19967;-60
2023/06/26 06:26:11;;;;;;;;;;;;;;;;;;5178805;22;19918;-61
2023/06/26 06:28:32;;;;;;;;;;;;;;;;;;5201391;22;19933;-60
2023/06/26 06:30:52;;;;;;;;;;;;;;;;;;5201434;22;19926;-61
2023/06/26 06:33:15;;;;;;;;;;;;;;;;;;5201508;22;19949;-60
2023/06/26 06:35:35;;;;;;;;;;;;;;;;;;5201413;22;19937;-60
2023/06/26 06:37:55;;;;;;;;;;;;;;;;;;5201400;22;19964;-60
2023/06/26 06:40:15;;;;;;;;;;;;;;;;;;5201447;22;19926;-60
2023/06/26 06:42:35;;;;;;;;;;;;;;;;;;5178661;22;19985;-60
2023/06/26 06:44:56;;;;;;;;;;;;;;;;;;5201376;22;19949;-60
2023/06/26 06:47:16;;;;;;;;;;;;;;;;;;5201380;22;19949;-60
2023/06/26 06:49:36;;;;;;;;;;;;;;;;;;5201323;22;19922;-60
2023/06/26 06:51:56;;;;;;;;;;;;;;;;;;5201263;22;20221;-60
2023/06/26 06:54:17;;;;;;;;;;;;;;;;;;5201391;22;19925;-60
2023/06/26 06:56:37;;;;;;;;;;;;;;;;;;5201330;22;20110;-60
2023/06/26 06:58:57;;;;;;;;;;;;;;;;;;5200894;22;19948;-61
2023/06/26 07:01:17;;;;;;;;;;;;;;;;;;5201233;22;19956;-60
2023/06/26 07:03:38;;;;;;;;;;;;;;;;;;5201365;22;19968;-60
2023/06/26 07:05:58;;;;;;;;;;;;;;;;;;5201197;22;19961;-61
2023/06/26 07:08:19;;;;;;;;;;;;;;;;;;5201289;22;19998;-60
2023/06/26 07:10:39;;;;;;;;;;;;;;;;;;5201306;22;20221;-60
2023/06/26 07:12:59;;;;;;;;;;;;;;;;;;5201303;22;19918;-60
2023/06/26 07:15:20;;;;;;;;;;;;;;;;;;5201241;22;19967;-60
2023/06/26 07:17:40;;;;;;;;;;;;;;;;;;5201271;22;20222;-60
2023/06/26 07:20:00;;;;;;;;;;;;;;;;;;5201185;22;19977;-61
2023/06/26 07:22:20;;;;;;;;;;;;;;;;;;5201168;22;19918;-58
2023/06/26 07:24:41;;;;;;;;;;;;;;;;;;5201324;22;19918;-58
2023/06/26 07:27:01;;;;;;;;;;;;;;;;;;5201122;22;20163;-59
2023/06/26 07:29:21;;;;;;;;;;;;;;;;;;5201076;22;19918;-59
2023/06/26 07:31:42;;;;;;;;;;;;;;;;;;5201067;22;19949;-58
2023/06/26 07:34:02;;;;;;;;;;;;;;;;;;5201157;22;19918;-58
2023/06/26 07:36:22;;;;;;;;;;;;;;;;;;5201031;22;19950;-58
2023/06/26 07:38:45;;;;;;;;;;;;;;;;;;5201095;22;19987;-58
2023/06/26 07:41:05;;;;;;;;;;;;;;;;;;5200917;22;19965;-59
2023/06/26 07:43:26;;;;;;;;;;;;;;;;;;5200981;22;19917;-58
2023/06/26 07:45:46;;;;;;;;;;;;;;;;;;5200860;22;20118;-59
2023/06/26 07:48:07;;;;;;;;;;;;;;;;;;5201062;22;19918;-59
2023/06/26 07:50:27;;;;;;;;;;;;;;;;;;5200952;22;20222;-58
2023/06/26 07:52:47;;;;;;;;;;;;;;;;;;5200888;22;20272;-59
2023/06/26 07:55:08;;;;;;;;;;;;;;;;;;5201092;22;19918;-59
2023/06/26 07:57:28;;;;;;;;;;;;;;;;;;5200800;22;19926;-59
2023/06/26 07:59:49;;;;;;;;;;;;;;;;;;5200668;22;19967;-59
2023/06/26 08:02:09;;;;;;;;;;;;;;;;;;5200756;22;19961;-58
2023/06/26 08:04:33;;;;;;;;;;;;;;;;;;5200873;22;20253;-58
2023/06/26 08:06:54;;;;;;;;;;;;;;;;;;5200744;22;19934;-59
2023/06/26 08:09:14;;;;;;;;;;;;;;;;;;5200767;22;19948;-59
2023/06/26 08:11:34;;;;;;;;;;;;;;;;;;5201608;22;19932;-58
2023/06/26 08:13:55;;;;;;;;;;;;;;;;;;5201903;22;19998;-58
2023/06/26 08:16:16;;;;;;;;;;;;;;;;;;5201907;22;19918;-59
2023/06/26 08:18:36;;;;;;;;;;;;;;;;;;5201917;22;19922;-58
2023/06/26 08:20:57;;;;;;;;;;;;;;;;;;5201931;22;19953;-59
2023/06/26 08:23:17;;;;;;;;;;;;;;;;;;5201871;22;20162;-58
2023/06/26 08:25:37;;;;;;;;;;;;;;;;;;5201966;22;20337;-59
2023/06/26 08:27:58;;;;;;;;;;;;;;;;;;5201971;22;19919;-58
2023/06/26 08:30:18;;;;;;;;;;;;;;;;;;5201863;22;20229;-58
2023/06/26 08:32:38;;;;;;;;;;;;;;;;;;5201829;22;20102;-59
2023/06/26 08:34:59;;;;;;;;;;;;;;;;;;5201927;22;19922;-58
2023/06/26 08:37:19;;;;;;;;;;;;;;;;;;5201784;22;20122;-58
2023/06/26 08:39:40;;;;;;;;;;;;;;;;;;5201676;22;19949;-59
2023/06/26 08:42:00;;;;;;;;;;;;;;;;;;5201918;22;19918;-58
2023/06/26 08:44:24;;;;;;;;;;;;;;;;;;5201819;22;20098;-58
2023/06/26 08:46:44;;;;;;;;;;;;;;;;;;5201876;22;19918;-59
2023/06/26 08:49:04;;;;;;;;;;;;;;;;;;5201909;22;19922;-58
2023/06/26 08:51:25;;;;;;;;;;;;;;;;;;5201795;22;19918;-59
2023/06/26 08:53:46;;;;;;;;;;;;;;;;;;5201713;22;20229;-59
2023/06/26 08:56:06;;;;;;;;;;;;;;;;;;5201867;22;19952;-58
2023/06/26 08:58:27;;;;;;;;;;;;;;;;;;5201831;22;20114;-58
2023/06/26 09:00:47;;;;;;;;;;;;;;;;;;5201608;22;19918;-58
2023/06/26 09:03:07;;;;;;;;;;;;;;;;;;5201719;22;19949;-59
2023/06/26 09:05:28;;;;;;;;;;;;;;;;;;5201850;22;19967;-59
2023/06/26 09:07:48;;;;;;;;;;;;;;;;;;5201700;22;19918;-58
2023/06/26 09:10:08;;;;;;;;;;;;;;;;;;5201750;22;19983;-58
2023/06/26 09:12:29;;;;;;;;;;;;;;;;;;5201895;22;19957;-59
2023/06/26 09:14:49;;;;;;;;;;;;;;;;;;5201795;22;19941;-59
2023/06/26 09:17:09;;;;;;;;;;;;;;;;;;5201757;22;19965;-59
2023/06/26 09:19:30;;;;;;;;;;;;;;;;;;5201747;22;19934;-59
2023/06/26 09:21:51;;;;;;;;;;;;;;;;;;5201675;22;19918;-58
2023/06/26 09:24:11;;;;;;;;;;;;;;;;;;5201591;22;19942;-59
2023/06/26 09:26:31;;;;;;;;;;;;;;;;;;5201692;22;20262;-59
2023/06/26 09:28:52;;;;;;;;;;;;;;;;;;5201747;22;19949;-59
2023/06/26 09:31:12;;;;;;;;;;;;;;;;;;5201672;22;19926;-59
2023/06/26 09:33:34;;;;;;;;;;;;;;;;;;5201595;22;20236;-59
2023/06/26 09:35:54;;;;;;;;;;;;;;;;;;5201706;22;20256;-58
2023/06/26 09:38:15;;;;;;;;;;;;;;;;;;5201641;22;19918;-59
2023/06/26 09:40:37;;;;;;;;;;;;;;;;;;5201428;22;20163;-59
2023/06/26 09:42:58;;;;;;;;;;;;;;;;;;5178923;22;19919;-58
2023/06/26 09:45:19;;;;;;;;;;;;;;;;;;5201645;22;20119;-58
2023/06/26 09:47:39;;;;;;;;;;;;;;;;;;5201621;22;19918;-58
2023/06/26 09:49:59;;;;;;;;;;;;;;;;;;5201665;22;19952;-58
2023/06/26 09:52:20;;;;;;;;;;;;;;;;;;5201614;22;19957;-59
2023/06/26 09:54:40;;;;;;;;;;;;;;;;;;5201474;22;19918;-58
2023/06/26 09:57:00;;;;;;;;;;;;;;;;;;5201663;22;19961;-59
2023/06/26 09:59:21;;;;;;;;;;;;;;;;;;5178821;22;20115;-58
2023/06/26 10:01:41;;;;;;;;;;;;;;;;;;5201510;22;19938;-58
2023/06/26 10:04:02;;;;;;;;;;;;;;;;;;5201441;22;19952;-58
2023/06/26 10:06:26;;;;;;;;;;;;;;;;;;5201704;22;20240;-58
2023/06/26 10:08:46;;;;;;;;;;;;;;;;;;5201516;22;19934;-58
2023/06/26 10:11:06;;;;;;;;;;;;;;;;;;5201480;22;19926;-59
2023/06/26 10:13:27;;;;;;;;;;;;;;;;;;5201688;22;20229;-59
2023/06/26 10:15:47;;;;;;;;;;;;;;;;;;5201548;22;19948;-58
2023/06/26 10:18:07;;;;;;;;;;;;;;;;;;5201436;22;19926;-58
2023/06/26 10:20:28;;;;;;;;;;;;;;;;;;5201398;22;19942;-59
2023/06/26 10:22:48;;;;;;;;;;;;;;;;;;5201559;22;19918;-58
2023/06/26 10:25:08;;;;;;;;;;;;;;;;;;5201418;22;19953;-58
2023/06/26 10:27:29;;;;;;;;;;;;;;;;;;5201425;22;19957;-58
2023/06/26 10:29:49;;;;;;;;;;;;;;;;;;5201429;22;19918;-59
2023/06/26 10:32:09;;;;;;;;;;;;;;;;;;5201637;22;19956;-58
2023/06/26 10:34:30;;;;;;;;;;;;;;;;;;5200798;22;19926;-58
2023/06/26 10:36:51;;;;;;;;;;;;;;;;;;5201521;22;19956;-58
2023/06/26 10:39:11;;;;;;;;;;;;;;;;;;5178670;22;19971;-58
2023/06/26 10:41:32;;;;;;;;;;;;;;;;;;5201225;22;19933;-58
2023/06/26 10:43:53;;;;;;;;;;;;;;;;;;5201407;22;20133;-58
2023/06/26 10:46:13;;;;;;;;;;;;;;;;;;5201333;22;19926;-58
2023/06/26 10:48:34;;;;;;;;;;;;;;;;;;5201311;22;19925;-59
2023/06/26 10:50:54;;;;;;;;;;;;;;;;;;5201369;22;19918;-59
2023/06/26 10:53:14;;;;;;;;;;;;;;;;;;5201367;22;19934;-58
2023/06/26 10:55:35;;;;;;;;;;;;;;;;;;5201258;22;19948;-59
2023/06/26 10:57:58;;;;;;;;;;;;;;;;;;5201299;22;19921;-58
2023/06/26 11:00:18;;;;;;;;;;;;;;;;;;5201257;22;19918;-59
2023/06/26 11:02:39;;;;;;;;;;;;;;;;;;5201327;22;19992;-58
2023/06/26 11:04:59;;;;;;;;;;;;;;;;;;5201304;22;20260;-58
2023/06/26 11:07:19;;;;;;;;;;;;;;;;;;5201410;22;20161;-58
2023/06/26 11:09:40;;;;;;;;;;;;;;;;;;5201237;22;19976;-58
2023/06/26 11:12:04;;;;;;;;;;;;;;;;;;5201254;22;19918;-58
2023/06/26 11:14:24;;;;;;;;;;;;;;;;;;5201366;22;19925;-58
2023/06/26 11:16:45;;;;;;;;;;;;;;;;;;5178467;22;19967;-59
2023/06/26 11:19:05;;;;;;;;;;;;;;;;;;5201150;22;19967;-58
2023/06/26 11:21:25;;;;;;;;;;;;;;;;;;5201079;22;20221;-59
2023/06/26 11:23:46;;;;;;;;;;;;;;;;;;5201233;22;19991;-59
2023/06/26 11:26:06;;;;;;;;;;;;;;;;;;5201082;22;20110;-58
2023/06/26 11:28:27;;;;;;;;;;;;;;;;;;5178447;22;19968;-59
2023/06/26 11:30:47;;;;;;;;;;;;;;;;;;5201209;22;19925;-58
2023/06/26 11:33:08;;;;;;;;;;;;;;;;;;5201165;22;19999;-58
2023/06/26 11:35:31;;;;;;;;;;;;;;;;;;5200994;22;19926;-58
2023/06/26 11:37:52;;;;;;;;;;;;;;;;;;5178166;22;19958;-58
2023/06/26 11:40:12;;;;;;;;;;;;;;;;;;5200936;22;19918;-58
2023/06/26 11:42:32;;;;;;;;;;;;;;;;;;5200967;22;19963;-58
2023/06/26 11:44:52;;;;;;;;;;;;;;;;;;5201378;22;19957;-58
2023/06/26 11:47:13;;;;;;;;;;;;;;;;;;5202139;22;20110;-58
2023/06/26 11:49:33;;;;;;;;;;;;;;;;;;5202029;22;19926;-58
2023/06/26 11:51:57;;;;;;;;;;;;;;;;;;5201994;22;19917;-59
2023/06/26 11:54:18;;;;;;;;;;;;;;;;;;5202068;22;19997;-59
2023/06/26 11:56:38;;;;;;;;;;;;;;;;;;5202044;22;19957;-59
2023/06/26 11:59:02;;;;;;;;;;;;;;;;;;5202013;22;19918;-58
2023/06/26 12:01:22;;;;;;;;;;;;;;;;;;5202073;22;19921;-59
2023/06/26 12:03:42;;;;;;;;;;;;;;;;;;5201998;22;20205;-58
2023/06/26 12:06:05;;;;;;;;;;;;;;;;;;5202365;22;19918;-58
2023/06/26 12:08:26;;;;;;;;;;;;;;;;;;5201956;22;19957;-59
2023/06/26 12:10:46;;;;;;;;;;;;;;;;;;5201992;22;20240;-58
2023/06/26 12:13:07;;;;;;;;;;;;;;;;;;5201914;22;20111;-58
2023/06/26 12:15:27;;;;;;;;;;;;;;;;;;5201893;22;20122;-58
2023/06/26 12:17:47;;;;;;;;;;;;;;;;;;5202015;22;19929;-59
2023/06/26 12:20:09;;;;;;;;;;;;;;;;;;5201873;22;19978;-59
2023/06/26 12:22:29;;;;;;;;;;;;;;;;;;5201910;22;19925;-59
2023/06/26 12:24:49;;;;;;;;;;;;;;;;;;5201941;22;19948;-59
2023/06/26 12:27:10;;;;;;;;;;;;;;;;;;5210424;22;19969;-58
2023/06/26 12:29:30;;;;;;;;;;;;;;;;;;5201748;22;19963;-58
2023/06/26 12:31:50;;;;;;;;;;;;;;;;;;5202086;22;19918;-59
2023/06/26 12:34:11;;;;;;;;;;;;;;;;;;5201965;22;19926;-58
2023/06/26 12:36:31;;;;;;;;;;;;;;;;;;5201866;22;19919;-59
2023/06/26 12:38:52;;;;;;;;;;;;;;;;;;5201861;22;19918;-59
2023/06/26 12:41:13;;;;;;;;;;;;;;;;;;5178989;22;19918;-58
2023/06/26 12:43:33;;;;;;;;;;;;;;;;;;5201708;22;20145;-58
2023/06/26 12:45:53;;;;;;;;;;;;;;;;;;5201803;22;20286;-59
2023/06/26 12:48:13;;;;;;;;;;;;;;;;;;5201933;22;20008;-58
2023/06/26 12:50:33;;;;;;;;;;;;;;;;;;5201834;22;19926;-59
2023/06/26 12:52:53;;;;;;;;;;;;;;;;;;5201766;22;19926;-59
2023/06/26 12:55:13;;;;;;;;;;;;;;;;;;5201948;22;19918;-59
2023/06/26 12:57:34;;;;;;;;;;;;;;;;;;5201465;22;20306;-58
2023/06/26 12:59:54;;;;;;;;;;;;;;;;;;5201668;22;20420;-59
2023/06/26 13:02:14;;;;;;;;;;;;;;;;;;5201838;22;20133;-59
2023/06/26 13:04:35;;;;;;;;;;;;;;;;;;5201818;22;19922;-59
2023/06/26 13:06:55;;;;;;;;;;;;;;;;;;5201742;22;19918;-58
2023/06/26 13:09:16;;;;;;;;;;;;;;;;;;5201790;22;19953;-59
2023/06/26 13:11:36;;;;;;;;;;;;;;;;;;5201780;22;19926;-59
2023/06/26 13:13:56;;;;;;;;;;;;;;;;;;5201739;22;19917;-58
2023/06/26 13:16:29;;;;;;;;;;;;;;;;;;5201712;22;19934;-58
2023/06/26 13:18:50;;;;;;;;;;;;;;;;;;5201776;22;20109;-59
2023/06/26 13:21:11;;;;;;;;;;;;;;;;;;5201649;22;19917;-58
2023/06/26 13:23:31;;;;;;;;;;;;;;;;;;5201583;22;19933;-59
2023/06/26 13:25:52;;;;;;;;;;;;;;;;;;5201721;22;19934;-59
2023/06/26 13:28:12;;;;;;;;;;;;;;;;;;5201720;22;19926;-58
2023/06/26 13:30:33;;;;;;;;;;;;;;;;;;5201625;22;19926;-58
2023/06/26 13:32:53;;;;;;;;;;;;;;;;;;5201717;22;19918;-58
2023/06/26 13:35:13;;;;;;;;;;;;;;;;;;5201723;22;19926;-58
2023/06/26 13:37:36;;;;;;;;;;;;;;;;;;5201626;22;19918;-58
2023/06/26 13:39:59;;;;;;;;;;;;;;;;;;5201515;22;19918;-58
2023/06/26 13:42:19;;;;;;;;;;;;;;;;;;5201769;22;19917;-59
2023/06/26 13:44:39;;;;;;;;;;;;;;;;;;5201613;22;19926;-58
2023/06/26 13:47:11;;;;;;;;;;;;;;;;;;5201549;22;19918;-59
2023/06/26 13:49:32;;;;;;;;;;;;;;;;;;5201562;22;19957;-58
2023/06/26 13:51:52;;;;;;;;;;;;;;;;;;5201697;22;19942;-58
2023/06/26 13:54:12;;;;;;;;;;;;;;;;;;5201693;22;20141;-58
2023/06/26 13:56:33;;;;;;;;;;;;;;;;;;5201575;22;19961;-59
2023/06/26 13:58:53;;;;;;;;;;;;;;;;;;5201658;22;19918;-59
2023/06/26 14:01:14;;;;;;;;;;;;;;;;;;5201488;22;19949;-58
2023/06/26 14:03:34;;;;;;;;;;;;;;;;;;5201541;22;19969;-59
2023/06/26 14:05:56;;;;;;;;;;;;;;;;;;5201580;22;19977;-58
2023/06/26 14:08:16;;;;;;;;;;;;;;;;;;5200889;22;19926;-59
2023/06/26 14:10:36;;;;;;;;;;;;;;;;;;5201444;22;19917;-58
2023/06/26 14:12:57;;;;;;;;;;;;;;;;;;5201606;22;19918;-58
2023/06/26 14:15:17;;;;;;;;;;;;;;;;;;5201595;22;20161;-58
2023/06/26 14:17:39;;;;;;;;;;;;;;;;;;5201479;22;19918;-59
2023/06/26 14:20:00;;;;;;;;;;;;;;;;;;5201454;22;19948;-59
2023/06/26 14:22:20;;;;;;;;;;;;;;;;;;5178846;22;20122;-59
2023/06/26 14:24:41;;;;;;;;;;;;;;;;;;5201430;22;20013;-59
2023/06/26 14:27:01;;;;;;;;;;;;;;;;;;5201465;22;19945;-58
2023/06/26 14:29:21;;;;;;;;;;;;;;;;;;5201523;22;19953;-59
2023/06/26 14:31:41;;;;;;;;;;;;;;;;;;5201446;22;19956;-58
2023/06/26 14:34:02;;;;;;;;;;;;;;;;;;5201355;22;19952;-58
2023/06/26 14:36:23;;;;;;;;;;;;;;;;;;5201503;22;19933;-58
2023/06/26 14:38:43;;;;;;;;;;;;;;;;;;5201389;22;19971;-59
2023/06/26 14:41:10;;;;;;;;;;;;;;;;;;4277241;27;19983;-61
2023/06/26 14:43:30;;;;;;;;;;;;;;;;;;4268372;27;20115;-61
2023/06/26 14:45:50;;;;;;;;;;;;;;;;;;4278860;27;20229;-61
2023/06/26 14:48:10;;;;;;;;;;;;;;;;;;4270029;27;20024;-61
2023/06/26 14:50:30;;;;;;;;;;;;;;;;;;4268159;27;20119;-61
2023/06/26 14:52:51;;;;;;;;;;;;;;;;;;4270083;27;19934;-61
2023/06/26 14:55:11;;;;;;;;;;;;;;;;;;4266402;27;19986;-60
2023/06/26 14:57:31;;;;;;;;;;;;;;;;;;4276595;27;19933;-61
2023/06/26 14:59:51;;;;;;;;;;;;;;;;;;4263335;27;19926;-61
2023/06/26 15:02:11;;;;;;;;;;;;;;;;;;4264531;27;19926;-61
2023/06/26 15:04:32;;;;;;;;;;;;;;;;;;4272542;27;19926;-61
2023/06/26 15:06:52;;;;;;;;;;;;;;;;;;4268003;27;19934;-60
2023/06/26 15:09:12;;;;;;;;;;;;;;;;;;4275915;27;20253;-61
2023/06/26 15:11:34;;;;;;;;;;;;;;;;;;4269586;27;19941;-60
2023/06/26 15:13:54;;;;;;;;;;;;;;;;;;4262847;27;19926;-60
2023/06/26 15:16:14;;;;;;;;;;;;;;;;;;4273413;27;20042;-61
2023/06/26 15:18:34;;;;;;;;;;;;;;;;;;4275714;27;20283;-60
2023/06/26 15:20:54;;;;;;;;;;;;;;;;;;4272573;27;20033;-61
2023/06/26 15:23:15;;;;;;;;;;;;;;;;;;4268605;27;20106;-58
2023/06/26 15:25:36;;;;;;;;;;;;;;;;;;4262328;27;19941;-58
2023/06/26 15:27:56;;;;;;;;;;;;;;;;;;4273637;27;19963;-59
2023/06/26 15:30:17;;;;;;;;;;;;;;;;;;4278327;27;20152;-58
2023/06/26 15:32:37;;;;;;;;;;;;;;;;;;4259286;27;19926;-58
2023/06/26 15:34:57;;;;;;;;;;;;;;;;;;4269955;27;19934;-58
2023/06/26 15:37:17;;;;;;;;;;;;;;;;;;4272363;27;20285;-58
2023/06/26 15:39:38;;;;;;;;;;;;;;;;;;4271645;27;19926;-58
2023/06/26 15:42:00;;;;;;;;;;;;;;;;;;4278055;27;19926;-58
2023/06/26 15:44:20;;;;;;;;;;;;;;;;;;4259706;27;19999;-58
2023/06/26 15:46:40;;;;;;;;;;;;;;;;;;4269640;27;19941;-58
2023/06/26 15:49:01;;;;;;;;;;;;;;;;;;4275595;27;19961;-59
2023/06/26 15:51:21;;;;;;;;;;;;;;;;;;4268498;27;19995;-57
2023/06/26 15:53:42;;;;;;;;;;;;;;;;;;4255860;27;19926;-57
2023/06/26 15:56:02;;;;;;;;;;;;;;;;;;4257312;27;19934;-58
2023/06/26 15:58:22;;;;;;;;;;;;;;;;;;4257873;27;19986;-58
2023/06/26 16:00:42;;;;;;;;;;;;;;;;;;4269374;27;19950;-57